Search for airport 
image banner adimage banner adimage banner ad
image banner ad

0CA6 - Emory Ranch

Located in Ocotillo, United States

ICAO - 0CA6, IATA -

Data provided by Airmate  

General information

Coordinates: N32°44'58" W116°0'58"
Elevation is 480 feet MSL.
Magnetic variation is 13° East
View others Airports in California

Operational data

Special qualification required
Current time UTC:
Current local time:
Weather at : KNJK - El Centro Naf ( 34 km )
METAR: KNJK 221256Z 00000KT 10SM BKN180 BKN250 28/17 A2976 RMK AO2 SLP094 T02780172 $
TAF: TAF KNJK 2207/2307 VRB06KT 9999 SCT150 BKN250 QNH2975INS FM221500 15007KT 9999 SCT150 BKN250 QNH2970INS FM230100 23009KT 9999 BKN150 BKN250 QNH2969INS AUTOMATED SENSOR METWATCH 2207 TIL 2213 T24/2213Z T42/2223Z FS30163
View NOTAMs / SUP AIP / TFR affecting this airport [VIEW]
Communications frequencies: [VIEW]

Runways:

RWY identifierQFULength (ft)Width (ft)SurfaceLDA (ft)
04240040ASPH
22240040ASPH

Airport contact information

Address: Ocotillo United States

Satellite view of 0CA6